Time;durP1;ratioP1;P1;durP2;ratioP2;P2;SDS_P1;SDS_P2;PMS_P1;PMS_P2;Temp;Humidity;BMP_temperature;BMP_pressure;BME280_temperature;BME280_humidity;BME280_pressure;Samples;Min_cycle;Max_cycle;Signal;HPM_P1;HPM_P2
2022/08/23 00:00:32;;;;;;;7.97;4.88;;;15.30;99.90;;;;;;5011493;28;20464;-69
2022/08/23 00:02:57;;;;;;;8.05;4.80;;;15.40;99.90;;;;;;5017502;28;20061;-69
2022/08/23 00:05:23;;;;;;;10.07;5.28;;;15.30;99.90;;;;;;5013975;28;20072;-67
2022/08/23 00:07:48;;;;;;;6.82;4.70;;;15.30;99.90;;;;;;5017019;28;20080;-72
2022/08/23 00:10:15;;;;;;;10.07;5.05;;;15.30;99.90;;;;;;5013894;28;20479;-69
2022/08/23 00:12:43;;;;;;;6.35;4.38;;;15.20;99.90;;;;;;5006794;28;20159;-68
2022/08/23 00:15:11;;;;;;;9.45;5.15;;;14.90;99.90;;;;;;5011317;28;20037;-67
2022/08/23 00:17:38;;;;;;;11.80;4.70;;;15.00;99.90;;;;;;5008491;28;20132;-71
2022/08/23 00:32:46;;;;;;;7.15;3.78;;;14.90;99.90;;;;;;5174910;22;19925;-70
2022/08/23 00:35:15;;;;;;;5.32;4.10;;;14.80;99.90;;;;;;5013925;28;20395;-71
2022/08/23 00:37:41;;;;;;;9.63;4.30;;;14.80;99.90;;;;;;5034138;28;20086;-68
2022/08/23 00:40:10;;;;;;;7.38;4.30;;;14.70;99.90;;;;;;5029090;28;20043;-69
2022/08/23 00:48:24;;;;;;;7.30;4.70;;;14.80;99.90;;;;;;5015739;28;20069;-70
2022/08/23 00:51:05;;;;;;;7.45;4.88;;;14.70;99.90;;;;;;5018268;28;20107;-70
2022/08/23 00:53:35;;;;;;;9.70;5.20;;;14.70;99.90;;;;;;5024234;28;20133;-67
2022/08/23 00:56:05;;;;;;;9.55;4.78;;;14.60;99.90;;;;;;5013421;28;20041;-68
2022/08/23 00:58:30;;;;;;;6.20;4.80;;;14.60;99.90;;;;;;5032514;28;20507;-69
2022/08/23 01:00:58;;;;;;;7.88;5.25;;;14.50;99.90;;;;;;5013587;28;20037;-68
2022/08/23 01:03:26;;;;;;;7.15;4.97;;;14.50;99.90;;;;;;5014643;28;20056;-66
2022/08/23 01:06:13;;;;;;;6.22;4.78;;;14.40;99.90;;;;;;5009532;28;20121;-73
2022/08/23 01:08:44;;;;;;;7.40;5.05;;;14.30;99.90;;;;;;5022237;28;20053;-67
2022/08/23 01:11:17;;;;;;;7.60;4.95;;;14.20;99.90;;;;;;5007673;28;20025;-67
2022/08/23 01:13:55;;;;;;;9.30;5.30;;;14.20;99.90;;;;;;5027324;28;20159;-72
2022/08/23 01:16:44;;;;;;;6.65;4.95;;;14.20;99.90;;;;;;5012472;28;20045;-68
2022/08/23 01:19:16;;;;;;;9.45;5.38;;;14.20;99.90;;;;;;5010834;28;20072;-68
2022/08/23 01:21:52;;;;;;;11.18;5.57;;;14.00;99.90;;;;;;5019020;28;20038;-68
2022/08/23 01:24:19;;;;;;;8.10;5.28;;;14.00;99.90;;;;;;5017423;28;20404;-68
2022/08/23 01:26:46;;;;;;;7.20;5.13;;;14.00;99.90;;;;;;5013196;28;20110;-70
2022/08/23 01:29:13;;;;;;;7.45;5.10;;;14.00;99.90;;;;;;5028646;28;20072;-70
2022/08/23 01:31:38;;;;;;;9.48;5.35;;;13.90;99.90;;;;;;5013833;28;21579;-71
2022/08/23 01:34:08;;;;;;;7.20;4.80;;;13.90;99.90;;;;;;5013521;28;20022;-69
2022/08/23 01:36:35;;;;;;;9.57;5.40;;;13.90;99.90;;;;;;5011400;28;20034;-70
2022/08/23 01:39:02;;;;;;;7.57;4.97;;;13.90;99.90;;;;;;5025312;28;20652;-67
2022/08/23 01:41:28;;;;;;;9.55;5.63;;;13.90;99.90;;;;;;5027047;28;20030;-68
2022/08/23 01:43:54;;;;;;;7.38;5.22;;;13.90;99.90;;;;;;5008956;28;20057;-69
2022/08/23 01:46:21;;;;;;;13.95;5.10;;;13.80;99.90;;;;;;5011615;28;20026;-67
2022/08/23 01:48:48;;;;;;;7.72;5.30;;;13.70;99.90;;;;;;5012072;28;20132;-77
2022/08/23 01:51:18;;;;;;;7.85;5.22;;;13.70;99.90;;;;;;5024854;28;20053;-70
2022/08/23 01:53:45;;;;;;;9.38;5.15;;;13.70;99.90;;;;;;5025403;28;20747;-67
2022/08/23 01:56:11;;;;;;;8.20;5.05;;;13.60;99.90;;;;;;5010730;28;20046;-67
2022/08/23 01:58:37;;;;;;;6.95;4.85;;;13.50;99.90;;;;;;5009858;28;20038;-69
2022/08/23 02:01:03;;;;;;;7.18;4.85;;;13.40;99.90;;;;;;5010702;28;20025;-68
2022/08/23 02:03:30;;;;;;;10.63;5.00;;;13.50;99.90;;;;;;5008318;28;20034;-67
2022/08/23 02:05:57;;;;;;;6.35;4.90;;;13.40;99.90;;;;;;5008300;28;20050;-69
2022/08/23 02:11:17;;;;;;;7.30;4.70;;;13.40;99.90;;;;;;5009877;28;20113;-67
2022/08/23 02:13:44;;;;;;;9.30;5.20;;;13.40;99.90;;;;;;5001760;28;20022;-67
2022/08/23 02:16:11;;;;;;;11.13;4.90;;;13.30;99.90;;;;;;5007227;28;20201;-70
2022/08/23 02:18:37;;;;;;;11.13;5.50;;;13.30;99.90;;;;;;5011047;28;20509;-71
2022/08/23 02:21:04;;;;;;;10.88;5.50;;;13.40;99.90;;;;;;5018087;28;20160;-68
2022/08/23 02:23:30;;;;;;;11.13;5.43;;;13.30;99.90;;;;;;5027421;28;20036;-67
2022/08/23 02:25:56;;;;;;;9.98;5.80;;;13.20;99.90;;;;;;5013304;28;20042;-67
2022/08/23 02:28:23;;;;;;;10.07;5.35;;;13.10;99.90;;;;;;5009708;28;20029;-68
2022/08/23 02:30:49;;;;;;;9.82;4.93;;;13.00;99.90;;;;;;5014168;28;20038;-67
2022/08/23 02:33:15;;;;;;;7.63;5.35;;;13.00;99.90;;;;;;5020710;28;20133;-68
2022/08/23 02:35:41;;;;;;;11.70;4.95;;;13.00;99.90;;;;;;5004741;28;20403;-67
2022/08/23 02:38:08;;;;;;;7.40;5.22;;;13.20;99.90;;;;;;5024002;28;20040;-68
2022/08/23 02:40:34;;;;;;;8.00;5.60;;;13.20;99.90;;;;;;5028571;28;20395;-68
2022/08/23 02:43:01;;;;;;;8.13;4.93;;;13.10;99.90;;;;;;5027714;28;20530;-68
2022/08/23 02:45:28;;;;;;;7.25;4.93;;;13.10;99.90;;;;;;5023237;28;20549;-68
2022/08/23 02:47:54;;;;;;;8.90;4.95;;;13.00;99.90;;;;;;4991078;28;20033;-75
2022/08/23 02:50:20;;;;;;;6.97;5.38;;;13.00;99.90;;;;;;5001755;28;20369;-66
2022/08/23 02:52:46;;;;;;;8.45;5.35;;;12.90;99.90;;;;;;5022406;28;20053;-67
2022/08/23 02:55:12;;;;;;;10.45;5.57;;;12.80;99.90;;;;;;5008138;28;20525;-66
2022/08/23 02:57:38;;;;;;;10.02;5.28;;;12.80;99.90;;;;;;5010007;28;20034;-67
2022/08/23 03:00:06;;;;;;;8.70;5.20;;;12.80;99.90;;;;;;5005792;28;20034;-71
2022/08/23 03:02:32;;;;;;;11.25;5.72;;;12.70;99.90;;;;;;5010289;28;20060;-69
2022/08/23 03:04:58;;;;;;;9.88;5.68;;;12.60;99.90;;;;;;5004141;28;20468;-72
2022/08/23 03:07:23;;;;;;;7.60;5.03;;;12.60;99.90;;;;;;5005833;28;20461;-68
2022/08/23 03:09:49;;;;;;;8.18;5.45;;;12.60;99.90;;;;;;4998854;28;20409;-68
2022/08/23 03:12:15;;;;;;;10.65;5.57;;;12.60;99.90;;;;;;4991755;28;20026;-69
2022/08/23 03:14:41;;;;;;;8.95;5.40;;;12.60;99.90;;;;;;5010270;28;20040;-66
2022/08/23 03:17:06;;;;;;;11.75;5.15;;;12.50;99.90;;;;;;5009691;28;20034;-70
2022/08/23 03:19:32;;;;;;;8.23;5.53;;;12.60;99.90;;;;;;4992935;28;20511;-69
2022/08/23 03:21:58;;;;;;;10.40;5.53;;;12.70;99.90;;;;;;5008567;28;20029;-67
2022/08/23 03:24:24;;;;;;;9.85;5.75;;;12.80;99.90;;;;;;5011384;28;20034;-66
2022/08/23 03:26:50;;;;;;;9.02;5.78;;;12.90;99.90;;;;;;5020740;28;20042;-67
2022/08/23 03:29:16;;;;;;;9.45;5.70;;;12.90;99.90;;;;;;5016888;28;20033;-67
2022/08/23 03:31:41;;;;;;;6.93;5.55;;;12.90;99.90;;;;;;5028489;28;20053;-68
2022/08/23 03:34:07;;;;;;;7.68;5.63;;;12.70;99.90;;;;;;5014496;28;20044;-67
2022/08/23 03:36:33;;;;;;;9.35;6.15;;;12.60;99.90;;;;;;5017803;28;20029;-67
2022/08/23 03:38:59;;;;;;;8.95;5.55;;;12.40;99.90;;;;;;4994021;28;20446;-71
2022/08/23 03:41:26;;;;;;;8.85;5.50;;;12.30;99.90;;;;;;5004410;28;20064;-70
2022/08/23 03:43:52;;;;;;;13.50;6.35;;;12.20;99.90;;;;;;5022143;28;20064;-66
2022/08/23 03:46:24;;;;;;;8.45;5.72;;;12.20;99.90;;;;;;5028994;28;20460;-67
2022/08/23 03:48:57;;;;;;;8.75;6.20;;;12.20;99.90;;;;;;4999733;28;20031;-66
2022/08/23 03:51:24;;;;;;;8.65;5.85;;;12.30;99.90;;;;;;4999047;28;20060;-66
2022/08/23 03:53:50;;;;;;;13.35;5.88;;;12.40;99.90;;;;;;5027998;28;20087;-67
2022/08/23 03:56:48;;;;;;;10.32;6.32;;;12.50;99.90;;;;;;5002388;28;20038;-68
2022/08/23 03:59:13;;;;;;;8.95;6.00;;;12.40;99.90;;;;;;4989688;28;20034;-75
2022/08/23 04:01:39;;;;;;;7.82;5.55;;;12.30;99.90;;;;;;4994920;28;20045;-67
2022/08/23 04:04:05;;;;;;;11.18;5.82;;;12.20;99.90;;;;;;5012692;28;20427;-68
2022/08/23 04:06:31;;;;;;;8.55;5.90;;;12.30;99.90;;;;;;5009912;28;20088;-68
2022/08/23 04:08:57;;;;;;;10.30;6.32;;;12.40;99.90;;;;;;5006912;28;20540;-75
2022/08/23 04:11:24;;;;;;;7.90;5.78;;;12.40;99.90;;;;;;5012361;28;20032;-70
2022/08/23 04:13:50;;;;;;;8.98;6.22;;;12.50;99.90;;;;;;5007300;28;20464;-67
2022/08/23 04:16:17;;;;;;;9.07;6.05;;;12.40;99.90;;;;;;5028683;28;20129;-69
2022/08/23 04:18:44;;;;;;;8.57;5.30;;;12.40;99.90;;;;;;5017788;28;20105;-73
2022/08/23 04:21:15;;;;;;;9.45;5.85;;;12.40;99.90;;;;;;5026409;28;20380;-66
2022/08/23 04:23:41;;;;;;;;;;;12.40;99.90;;;;;;5021024;28;20514;-70
2022/08/23 04:26:07;;;;;;;11.15;5.68;;;12.40;99.90;;;;;;5027327;28;20020;-71
2022/08/23 04:28:33;;;;;;;8.80;5.95;;;12.30;99.90;;;;;;5016302;28;20030;-69
2022/08/23 04:31:00;;;;;;;8.43;5.60;;;12.20;99.90;;;;;;5024819;28;20395;-74
2022/08/23 04:33:27;;;;;;;9.43;6.00;;;12.10;99.90;;;;;;5019630;28;20033;-68
2022/08/23 04:35:52;;;;;;;12.90;6.45;;;12.10;99.90;;;;;;5009619;28;20042;-69
2022/08/23 04:38:18;;;;;;;8.63;5.93;;;12.00;99.90;;;;;;5007508;28;20076;-68
2022/08/23 04:43:28;;;;;;;8.70;5.80;;;12.10;99.90;;;;;;5008446;28;20025;-67
2022/08/23 04:45:55;;;;;;;9.07;6.38;;;12.10;99.90;;;;;;5007060;28;20034;-69
2022/08/23 04:48:22;;;;;;;10.50;6.85;;;12.20;99.90;;;;;;5008112;28;20030;-68
2022/08/23 04:50:47;;;;;;;12.43;6.05;;;12.20;99.90;;;;;;5008854;28;20037;-71
2022/08/23 04:53:13;;;;;;;9.85;6.10;;;12.20;99.90;;;;;;5005959;28;20053;-73
2022/08/23 04:55:39;;;;;;;11.13;6.35;;;12.30;99.90;;;;;;5007751;28;20367;-69
2022/08/23 04:58:05;;;;;;;12.02;6.30;;;12.50;99.90;;;;;;5010307;28;20030;-69
2022/08/23 05:00:31;;;;;;;11.40;6.22;;;12.60;99.90;;;;;;5008049;28;20133;-67
2022/08/23 05:02:57;;;;;;;10.90;6.18;;;12.60;99.90;;;;;;5006237;28;20030;-70
2022/08/23 05:05:22;;;;;;;10.13;6.70;;;12.70;99.90;;;;;;5017852;28;20067;-68
2022/08/23 05:07:48;;;;;;;11.30;5.88;;;12.80;99.90;;;;;;5020655;28;20472;-67
2022/08/23 05:10:15;;;;;;;9.43;6.15;;;12.80;99.90;;;;;;5019200;28;20044;-67
2022/08/23 05:12:41;;;;;;;9.35;5.28;;;12.90;99.90;;;;;;5028630;28;20071;-70
2022/08/23 05:15:08;;;;;;;16.40;5.90;;;12.90;99.90;;;;;;5005817;28;20085;-70
2022/08/23 05:17:35;;;;;;;7.03;4.95;;;13.10;99.90;;;;;;5023330;28;20032;-69
2022/08/23 05:20:01;;;;;;;8.77;6.05;;;13.20;99.90;;;;;;5008618;28;20046;-78
2022/08/23 05:22:27;;;;;;;10.80;6.20;;;13.30;99.90;;;;;;5025148;28;20080;-71
2022/08/23 05:24:53;;;;;;;9.50;5.55;;;13.40;99.90;;;;;;5032496;28;20042;-69
2022/08/23 05:27:18;;;;;;;8.32;5.65;;;13.60;99.90;;;;;;5024630;28;20068;-68
2022/08/23 05:29:46;;;;;;;7.18;5.80;;;13.70;99.90;;;;;;5012052;28;20026;-68
2022/08/23 05:32:11;;;;;;;18.92;6.57;;;13.60;99.90;;;;;;5021712;28;20428;-68
2022/08/23 05:34:37;;;;;;;8.55;5.90;;;13.60;99.90;;;;;;5019326;28;20038;-68
2022/08/23 05:37:03;;;;;;;11.57;6.20;;;13.70;99.90;;;;;;5011737;28;20037;-76
2022/08/23 05:39:28;;;;;;;8.77;5.75;;;13.80;99.90;;;;;;5002045;28;20032;-67
2022/08/23 05:41:54;;;;;;;9.45;6.30;;;13.80;99.90;;;;;;5010562;28;20034;-70
2022/08/23 05:44:20;;;;;;;9.45;6.03;;;13.80;99.90;;;;;;5011305;28;20046;-68
2022/08/23 05:46:45;;;;;;;9.40;5.90;;;13.80;99.90;;;;;;4994515;28;20512;-68
2022/08/23 05:49:11;;;;;;;8.27;6.20;;;13.90;99.90;;;;;;5011246;28;20037;-68
2022/08/23 05:51:37;;;;;;;11.10;6.05;;;14.00;99.90;;;;;;5010795;28;20753;-73
2022/08/23 05:54:06;;;;;;;7.60;5.32;;;13.90;99.90;;;;;;5006606;28;20034;-75
2022/08/23 05:56:37;;;;;;;9.00;5.85;;;13.70;99.90;;;;;;5026027;28;20037;-68
2022/08/23 05:59:06;;;;;;;10.57;5.88;;;13.80;99.90;;;;;;5017160;28;20058;-73
2022/08/23 06:01:33;;;;;;;8.70;6.15;;;13.80;99.90;;;;;;5029145;28;20187;-68
2022/08/23 06:04:00;;;;;;;9.77;5.80;;;14.00;99.90;;;;;;5019823;28;20037;-66
2022/08/23 06:06:26;;;;;;;9.93;6.28;;;14.00;99.90;;;;;;5024145;28;20033;-69
2022/08/23 06:08:52;;;;;;;10.32;5.45;;;14.20;99.90;;;;;;5031561;28;20028;-71
2022/08/23 06:11:25;;;;;;;10.38;6.03;;;14.30;99.90;;;;;;5006574;28;20041;-68
2022/08/23 06:13:54;;;;;;;10.48;6.20;;;14.40;99.90;;;;;;4994762;28;20166;-74
2022/08/23 06:16:23;;;;;;;8.15;5.68;;;14.60;99.90;;;;;;5009960;28;20032;-67
2022/08/23 06:18:50;;;;;;;9.02;5.68;;;14.80;99.90;;;;;;5001012;28;20026;-69
2022/08/23 06:21:17;;;;;;;11.60;6.32;;;14.90;99.90;;;;;;5024952;28;20040;-68
2022/08/23 06:23:46;;;;;;;9.85;5.68;;;15.20;99.90;;;;;;5012025;28;20033;-70
2022/08/23 06:26:20;;;;;;;9.27;6.22;;;15.40;99.90;;;;;;5010693;28;20041;-68
2022/08/23 06:28:52;;;;;;;10.48;5.88;;;15.50;99.90;;;;;;4997019;28;20062;-70
2022/08/23 06:31:44;;;;;;;11.40;6.18;;;15.70;99.90;;;;;;5010330;28;20057;-71
2022/08/23 06:34:06;;;;;;;10.13;5.95;;;15.80;99.90;;;;;;5000144;28;20064;-80
2022/08/23 06:36:32;;;;;;;11.00;5.60;;;15.90;99.90;;;;;;5007623;28;20133;-70
2022/08/23 06:38:58;;;;;;;6.85;5.32;;;16.00;99.90;;;;;;4991683;28;20038;-68
2022/08/23 06:41:24;;;;;;;8.98;5.82;;;16.20;99.90;;;;;;5004062;28;20041;-67
2022/08/23 06:43:50;;;;;;;12.65;6.10;;;16.40;99.90;;;;;;5006635;28;20022;-66
2022/08/23 06:46:22;;;;;;;8.27;5.35;;;16.60;99.90;;;;;;5013326;28;20128;-68
2022/08/23 06:48:49;;;;;;;9.63;6.15;;;16.80;99.90;;;;;;5008975;28;20669;-68
2022/08/23 06:51:24;;;;;;;9.40;6.40;;;17.00;99.90;;;;;;5009162;28;20038;-72
2022/08/23 06:53:56;;;;;;;12.00;5.82;;;17.20;99.90;;;;;;5011025;28;20033;-71
2022/08/23 06:56:23;;;;;;;13.23;6.30;;;17.40;99.90;;;;;;5007117;28;20042;-71
2022/08/23 06:58:50;;;;;;;10.20;5.60;;;17.50;99.90;;;;;;4995869;28;20026;-70
2022/08/23 07:01:39;;;;;;;9.77;5.93;;;17.60;99.90;;;;;;5004725;28;20497;-68
2022/08/23 07:04:07;;;;;;;12.73;6.07;;;17.70;99.90;;;;;;5005167;28;20030;-73
2022/08/23 07:06:33;;;;;;;9.65;5.32;;;17.80;99.90;;;;;;5007566;28;20121;-66
2022/08/23 07:08:59;;;;;;;8.10;5.20;;;18.00;99.90;;;;;;5000615;28;20018;-67
2022/08/23 07:11:28;;;;;;;13.85;6.20;;;18.20;99.90;;;;;;4994651;28;20087;-66
2022/08/23 07:13:54;;;;;;;13.18;5.70;;;18.40;99.90;;;;;;5013116;28;20034;-67
2022/08/23 07:16:20;;;;;;;12.27;6.22;;;18.60;99.90;;;;;;5004341;28;20109;-70
2022/08/23 07:18:48;;;;;;;9.07;5.60;;;18.70;99.90;;;;;;4996413;28;20085;-70
2022/08/23 07:21:14;;;;;;;11.98;5.15;;;18.80;99.90;;;;;;5018577;28;20034;-67
2022/08/23 07:23:39;;;;;;;12.25;6.07;;;19.00;99.90;;;;;;5004477;28;20106;-69
2022/08/23 07:26:11;;;;;;;16.25;6.20;;;19.10;99.90;;;;;;4999940;28;20046;-71
2022/08/23 07:28:38;;;;;;;13.75;5.93;;;19.20;99.90;;;;;;4991131;28;20026;-69
2022/08/23 07:31:17;;;;;;;10.38;5.72;;;19.30;99.90;;;;;;4993264;28;20412;-69
2022/08/23 07:33:44;;;;;;;9.05;5.13;;;19.50;99.90;;;;;;4994341;28;20030;-70
2022/08/23 07:36:13;;;;;;;12.88;5.35;;;19.60;99.90;;;;;;5006514;28;20073;-76
2022/08/23 07:38:39;;;;;;;7.90;4.72;;;19.80;99.90;;;;;;4998293;28;20030;-69
2022/08/23 07:41:05;;;;;;;10.80;5.10;;;19.90;99.90;;;;;;5009616;28;20033;-68
2022/08/23 07:43:33;;;;;;;8.95;4.70;;;20.10;99.90;;;;;;5013434;28;20038;-67
2022/08/23 07:45:59;;;;;;;6.45;4.28;;;20.20;99.90;;;;;;5006915;28;20171;-69
2022/08/23 07:48:25;;;;;;;6.80;4.05;;;20.40;99.90;;;;;;4999262;28;20440;-70
2022/08/23 07:50:56;;;;;;;8.57;5.07;;;20.60;99.90;;;;;;5011519;28;20156;-68
2022/08/23 07:53:23;;;;;;;15.13;4.63;;;20.80;99.90;;;;;;4998249;28;20596;-68
2022/08/23 07:55:49;;;;;;;9.43;4.43;;;20.90;99.90;;;;;;5007278;28;20236;-69
2022/08/23 07:58:15;;;;;;;7.88;3.80;;;21.10;99.90;;;;;;5008678;28;20047;-72
2022/08/23 08:00:41;;;;;;;12.30;4.30;;;21.20;99.90;;;;;;4998333;28;20034;-67
2022/08/23 08:03:08;;;;;;;8.18;4.05;;;21.30;99.90;;;;;;4993880;28;20029;-68
2022/08/23 08:05:35;;;;;;;7.10;3.35;;;21.50;99.90;;;;;;4999180;28;20540;-65
2022/08/23 08:08:02;;;;;;;7.30;3.95;;;21.70;99.90;;;;;;5000581;28;20112;-63
2022/08/23 08:10:27;;;;;;;5.57;3.67;;;21.80;99.90;;;;;;5000503;28;20033;-65
2022/08/23 08:12:53;;;;;;;6.22;3.80;;;21.90;99.90;;;;;;5008392;28;20026;-64
2022/08/23 08:15:20;;;;;;;5.90;3.88;;;22.00;99.10;;;;;;5016669;28;20038;-63
2022/08/23 08:17:47;;;;;;;5.72;3.67;;;22.00;99.80;;;;;;5012950;28;20030;-62
2022/08/23 08:20:14;;;;;;;9.45;3.63;;;22.10;99.90;;;;;;5016951;28;20060;-68
2022/08/23 08:22:40;;;;;;;7.50;3.65;;;22.30;99.30;;;;;;5026941;28;20464;-63
2022/08/23 08:25:07;;;;;;;5.65;3.60;;;22.50;99.90;;;;;;5018394;28;20038;-63
2022/08/23 08:27:33;;;;;;;4.55;3.47;;;22.70;98.10;;;;;;4997219;28;20096;-64
2022/08/23 08:29:59;;;;;;;5.82;3.50;;;22.80;95.30;;;;;;5008456;28;20030;-64
2022/08/23 08:32:25;;;;;;;5.93;3.63;;;22.90;95.70;;;;;;5007070;28;20517;-64
2022/08/23 08:34:50;;;;;;;5.43;3.30;;;23.00;96.00;;;;;;5008089;28;20033;-64
2022/08/23 08:37:16;;;;;;;8.52;3.47;;;23.20;94.40;;;;;;5011988;28;20042;-65
2022/08/23 08:39:44;;;;;;;5.25;2.95;;;23.20;93.00;;;;;;5009405;28;20108;-64
2022/08/23 08:42:46;;;;;;;8.60;3.15;;;23.20;94.90;;;;;;5015220;28;20101;-67
2022/08/23 08:45:22;;;;;;;4.85;3.15;;;23.40;91.70;;;;;;5015781;28;20040;-68
2022/08/23 08:47:55;;;;;;;4.65;2.90;;;23.50;86.30;;;;;;5008641;28;20030;-64
2022/08/23 08:50:42;;;;;;;5.38;3.33;;;23.70;81.60;;;;;;5004540;28;20030;-64
2022/08/23 08:53:23;;;;;;;5.13;3.30;;;23.80;84.20;;;;;;5009235;28;20501;-63
2022/08/23 08:55:52;;;;;;;5.85;3.17;;;23.90;88.30;;;;;;5013006;28;20377;-65
2022/08/23 08:58:28;;;;;;;5.15;3.10;;;24.10;87.80;;;;;;5010247;28;20049;-64
2022/08/23 09:00:54;;;;;;;6.45;3.22;;;24.20;86.60;;;;;;5011597;28;20030;-63
2022/08/23 09:03:21;;;;;;;5.93;3.20;;;24.20;85.60;;;;;;5010412;28;20061;-63
2022/08/23 09:05:51;;;;;;;6.05;2.92;;;24.20;86.20;;;;;;5021708;28;20049;-65
2022/08/23 09:08:20;;;;;;;;;;;24.50;86.10;;;;;;5028896;28;20042;-62
2022/08/23 09:11:11;;;;;;;7.47;3.20;;;24.60;84.00;;;;;;5027837;28;20055;-64
2022/08/23 09:13:55;;;;;;;6.07;3.13;;;24.80;84.90;;;;;;4993559;28;20080;-64
2022/08/23 09:16:33;;;;;;;8.43;3.47;;;24.90;80.80;;;;;;5008924;28;20109;-63
2022/08/23 09:19:01;;;;;;;4.35;2.80;;;25.00;79.80;;;;;;5012729;28;20026;-62
2022/08/23 09:21:31;;;;;;;4.22;3.17;;;25.10;79.40;;;;;;5010944;28;20105;-67
2022/08/23 09:23:57;;;;;;;;;;;25.00;76.10;;;;;;5013036;28;20030;-62
2022/08/23 09:26:29;;;;;;;7.47;3.10;;;25.00;77.80;;;;;;4998537;28;20256;-65
2022/08/23 09:29:00;;;;;;;6.30;3.03;;;25.20;76.90;;;;;;5007850;28;20092;-66
2022/08/23 09:31:44;;;;;;;5.35;3.00;;;25.20;73.80;;;;;;5011771;28;20369;-65
2022/08/23 09:34:21;;;;;;;7.95;3.17;;;25.20;71.00;;;;;;5009204;28;20564;-65
2022/08/23 09:36:47;;;;;;;5.35;2.67;;;25.20;67.60;;;;;;5012528;28;20054;-64
2022/08/23 09:39:31;;;;;;;5.60;2.55;;;25.40;66.70;;;;;;5007990;28;20080;-65
2022/08/23 09:41:58;;;;;;;4.85;2.95;;;25.50;70.20;;;;;;5018523;28;20037;-62
2022/08/23 09:44:44;;;;;;;5.90;3.15;;;25.80;70.50;;;;;;5028028;28;20034;-65
2022/08/23 09:47:15;;;;;;;8.70;2.92;;;26.10;67.70;;;;;;5009633;28;20052;-64
2022/08/23 09:49:44;;;;;;;5.60;2.92;;;26.30;66.00;;;;;;5009377;28;20069;-64
2022/08/23 09:52:33;;;;;;;5.05;2.83;;;26.30;63.50;;;;;;5007033;28;20029;-62
2022/08/23 09:55:02;;;;;;;4.10;2.93;;;26.30;66.60;;;;;;5011626;28;20100;-63
2022/08/23 09:57:31;;;;;;;7.85;3.22;;;26.40;66.20;;;;;;5020278;28;20029;-67
2022/08/23 10:00:21;;;;;;;6.93;3.10;;;26.40;67.20;;;;;;5009397;28;20057;-64
2022/08/23 10:02:46;;;;;;;4.60;3.00;;;26.70;66.00;;;;;;5008715;28;20045;-66
2022/08/23 10:05:15;;;;;;;10.15;3.58;;;26.50;65.70;;;;;;5009540;28;20528;-65
2022/08/23 10:07:43;;;;;;;6.53;3.42;;;26.60;63.50;;;;;;5010865;28;20034;-66
2022/08/23 10:10:28;;;;;;;7.30;3.40;;;26.60;68.90;;;;;;5005316;28;20034;-65
2022/08/23 10:12:56;;;;;;;5.32;3.28;;;26.50;64.30;;;;;;5008423;28;20026;-65
2022/08/23 10:15:48;;;;;;;13.90;4.05;;;26.50;66.40;;;;;;5010398;28;20064;-66
2022/08/23 10:18:14;;;;;;;8.70;3.53;;;26.60;64.80;;;;;;5008791;28;20057;-65
2022/08/23 10:21:01;;;;;;;6.70;3.50;;;26.50;68.90;;;;;;5010661;28;20033;-65
2022/08/23 10:24:01;;;;;;;4.30;3.25;;;26.40;68.80;;;;;;4999121;28;20036;-65
2022/08/23 10:26:31;;;;;;;8.63;4.00;;;26.70;69.60;;;;;;5009206;28;20127;-66
2022/08/23 10:32:27;;;;;;;5.72;3.30;;;27.20;67.60;;;;;;4967466;28;20049;-71
2022/08/23 10:35:11;;;;;;;4.90;3.20;;;27.50;63.20;;;;;;5010206;28;20057;-65
2022/08/23 10:38:02;;;;;;;4.93;3.30;;;27.60;68.30;;;;;;4991725;28;20145;-66
2022/08/23 10:40:34;;;;;;;4.38;3.47;;;27.70;65.70;;;;;;5008328;28;20088;-65
2022/08/23 10:43:31;;;;;;;11.30;3.78;;;27.60;63.50;;;;;;5011308;28;20072;-65
2022/08/23 10:46:00;;;;;;;7.90;3.55;;;27.60;64.50;;;;;;5017806;28;20038;-64
2022/08/23 10:48:50;;;;;;;6.90;3.45;;;27.90;67.10;;;;;;5008279;28;20026;-66
2022/08/23 10:51:21;;;;;;;8.13;3.03;;;27.50;63.50;;;;;;4991514;28;20389;-65
2022/08/23 10:54:17;;;;;;;7.07;3.20;;;27.40;67.90;;;;;;4997998;28;20037;-67
2022/08/23 10:56:44;;;;;;;6.88;3.38;;;27.60;67.40;;;;;;5022068;28;20041;-65
2022/08/23 10:59:19;;;;;;;7.05;3.20;;;27.90;61.70;;;;;;5017070;28;20042;-63
2022/08/23 11:02:16;;;;;;;4.60;3.25;;;28.00;64.30;;;;;;5016864;28;20045;-64
2022/08/23 11:04:52;;;;;;;7.70;3.17;;;28.20;64.80;;;;;;5023187;28;20094;-66
2022/08/23 11:07:25;;;;;;;7.07;2.80;;;28.30;59.80;;;;;;5010664;28;20045;-65
2022/08/23 11:10:07;;;;;;;11.18;3.90;;;28.60;60.20;;;;;;5009155;28;20040;-64
2022/08/23 11:12:48;;;;;;;5.75;3.33;;;28.30;60.10;;;;;;5009747;28;20030;-65
2022/08/23 11:15:31;;;;;;;5.38;3.30;;;27.80;59.70;;;;;;5008463;28;20060;-64
2022/08/23 11:18:03;;;;;;;10.10;3.38;;;27.90;64.30;;;;;;5004103;28;20034;-66
2022/08/23 11:20:47;;;;;;;4.47;3.45;;;28.40;59.50;;;;;;4990181;28;20113;-63
2022/08/23 11:23:34;;;;;;;6.38;3.40;;;28.50;59.90;;;;;;5001672;28;20088;-64
2022/08/23 11:26:02;;;;;;;5.95;3.17;;;28.70;60.10;;;;;;5028838;28;20059;-64
2022/08/23 11:28:28;;;;;;;5.65;3.53;;;28.60;57.90;;;;;;5028167;28;20108;-65
2022/08/23 11:31:16;;;;;;;3.63;3.15;;;28.40;57.30;;;;;;5012913;28;20456;-64
2022/08/23 11:33:42;;;;;;;6.28;3.15;;;28.70;61.00;;;;;;5012251;28;20029;-65
2022/08/23 11:36:07;;;;;;;5.57;3.30;;;29.10;59.80;;;;;;5016133;28;20044;-66
2022/08/23 11:38:48;;;;;;;5.95;3.28;;;29.50;59.30;;;;;;5028243;28;20074;-63
2022/08/23 11:41:17;;;;;;;11.95;3.42;;;29.70;57.90;;;;;;5028410;28;20464;-64
2022/08/23 11:44:04;;;;;;;4.90;3.33;;;29.70;56.80;;;;;;5008445;28;20522;-62
2022/08/23 11:46:54;;;;;;;8.18;3.22;;;29.70;57.00;;;;;;4992498;28;20119;-65
2022/08/23 11:49:33;;;;;;;6.75;3.70;;;29.50;56.10;;;;;;5006956;28;20499;-63
2022/08/23 11:52:24;;;;;;;7.38;3.60;;;29.50;54.90;;;;;;5008344;28;20034;-66
2022/08/23 11:55:20;;;;;;;4.65;3.25;;;29.10;55.60;;;;;;5027379;28;20025;-64
2022/08/23 11:58:04;;;;;;;5.68;3.40;;;28.80;57.50;;;;;;5006014;28;20867;-67
2022/08/23 12:01:06;;;;;;;4.80;3.45;;;28.80;56.50;;;;;;5003571;28;20026;-64
2022/08/23 12:03:50;;;;;;;4.60;2.85;;;29.00;57.40;;;;;;5018082;28;20116;-65
2022/08/23 12:06:19;;;;;;;4.28;3.25;;;28.80;56.40;;;;;;5017484;28;20041;-63
2022/08/23 12:08:54;;;;;;;7.72;3.25;;;29.10;56.60;;;;;;5007731;28;20036;-63
2022/08/23 12:11:23;;;;;;;8.10;3.22;;;28.90;55.80;;;;;;5009605;28;20029;-65
2022/08/23 12:13:48;;;;;;;5.45;3.85;;;28.80;57.20;;;;;;5014161;28;20033;-66
2022/08/23 12:16:18;;;;;;;8.65;3.47;;;29.10;57.10;;;;;;5006320;28;20049;-65
2022/08/23 12:18:53;;;;;;;8.57;3.57;;;29.10;55.00;;;;;;5008482;28;20037;-65
2022/08/23 12:21:42;;;;;;;9.23;3.65;;;28.70;55.70;;;;;;5009451;28;20353;-65
2022/08/23 12:24:20;;;;;;;5.70;3.63;;;28.20;57.50;;;;;;5023460;28;20030;-63
2022/08/23 12:27:09;;;;;;;6.90;4.30;;;28.20;59.70;;;;;;5000119;28;20041;-64
2022/08/23 12:29:57;;;;;;;4.85;3.28;;;28.60;57.30;;;;;;4988847;28;20023;-65
2022/08/23 12:32:44;;;;;;;4.32;3.40;;;28.70;59.00;;;;;;5005693;28;20443;-68
2022/08/23 12:35:47;;;;;;;4.70;3.22;;;29.20;60.90;;;;;;5007807;28;20374;-64
2022/08/23 12:38:15;;;;;;;9.15;3.50;;;29.30;54.50;;;;;;5006898;28;20064;-67
2022/08/23 12:40:48;;;;;;;7.18;3.15;;;29.10;54.60;;;;;;5007371;28;20432;-64
2022/08/23 12:43:21;;;;;;;6.30;3.72;;;29.20;53.50;;;;;;5008187;28;20057;-64
2022/08/23 12:45:53;;;;;;;9.35;3.50;;;29.40;54.90;;;;;;4997231;28;20042;-65
2022/08/23 12:48:22;;;;;;;5.35;3.08;;;29.70;55.10;;;;;;4996898;28;20112;-66
2022/08/23 12:51:01;;;;;;;6.68;3.20;;;29.70;52.30;;;;;;5027864;28;20032;-65
2022/08/23 12:53:35;;;;;;;10.07;3.28;;;29.70;54.50;;;;;;5023372;28;20025;-71
2022/08/23 12:56:05;;;;;;;4.70;3.00;;;30.00;52.50;;;;;;5012687;28;20037;-64
2022/08/23 12:58:35;;;;;;;4.13;3.00;;;30.00;52.60;;;;;;5013013;28;20052;-65
2022/08/23 13:01:06;;;;;;;12.15;3.15;;;30.10;51.50;;;;;;5008535;28;20034;-64
2022/08/23 13:03:38;;;;;;;4.75;3.10;;;30.20;52.60;;;;;;5010347;28;20069;-67
2022/08/23 13:06:20;;;;;;;7.47;2.92;;;30.30;53.00;;;;;;5014152;28;20500;-63
2022/08/23 13:09:16;;;;;;;7.35;3.38;;;30.40;53.60;;;;;;4992500;28;20034;-67
2022/08/23 13:11:43;;;;;;;9.38;3.30;;;30.50;50.60;;;;;;5008647;28;20113;-66
2022/08/23 13:14:30;;;;;;;7.22;3.67;;;30.50;51.30;;;;;;5018258;28;20029;-67
2022/08/23 13:16:58;;;;;;;7.35;3.65;;;30.10;50.00;;;;;;5029225;28;20361;-67
2022/08/23 13:19:32;;;;;;;4.70;2.88;;;30.00;51.00;;;;;;5014319;28;20041;-66
2022/08/23 13:22:16;;;;;;;9.35;3.60;;;29.60;51.00;;;;;;5008265;28;20034;-66
2022/08/23 13:25:05;;;;;;;6.88;3.60;;;29.20;52.90;;;;;;5015818;28;20033;-66
2022/08/23 13:27:48;;;;;;;4.00;3.08;;;29.10;51.90;;;;;;5028066;28;20041;-70
2022/08/23 13:30:14;;;;;;;5.90;3.40;;;29.20;50.90;;;;;;5007808;28;20435;-67
2022/08/23 13:32:41;;;;;;;6.20;3.38;;;29.00;53.70;;;;;;5010468;28;20085;-65